Time;durP1;ratioP1;P1;durP2;ratioP2;P2;SDS_P1;SDS_P2;PMS_P1;PMS_P2;Temp;Humidity;BMP_temperature;BMP_pressure;BME280_temperature;BME280_humidity;BME280_pressure;Samples;Min_cycle;Max_cycle;Signal;HPM_P1;HPM_P2
2022/06/10 00:01:48;;;;;;;5.00;2.97;;;16.20;97.30;;;;;;5052996;28;20512;-81
2022/06/10 00:04:13;;;;;;;5.57;2.63;;;16.20;97.30;;;;;;5052718;28;20270;-82
2022/06/10 00:06:39;;;;;;;3.10;2.93;;;16.10;97.30;;;;;;5052168;28;20568;-82
2022/06/10 00:09:05;;;;;;;4.17;2.73;;;16.10;97.30;;;;;;5052656;28;20175;-81
2022/06/10 00:11:30;;;;;;;5.60;4.30;;;16.00;97.30;;;;;;5052981;28;20222;-82
2022/06/10 00:13:56;;;;;;;4.13;3.47;;;16.00;97.30;;;;;;5069940;28;20175;-82
2022/06/10 00:16:22;;;;;;;4.70;3.37;;;15.90;97.30;;;;;;5052002;28;20635;-82
2022/06/10 00:18:48;;;;;;;5.07;3.10;;;15.90;97.30;;;;;;5051912;28;20197;-81
2022/06/10 00:21:15;;;;;;;3.97;3.17;;;15.90;97.30;;;;;;5052019;28;20262;-81
2022/06/10 00:23:41;;;;;;;5.80;3.20;;;15.80;97.30;;;;;;5052205;28;20883;-81
2022/06/10 00:26:07;;;;;;;4.00;2.90;;;15.80;97.30;;;;;;5052145;28;20469;-81
2022/06/10 00:28:33;;;;;;;5.27;3.13;;;15.80;97.30;;;;;;5052052;28;20186;-81
2022/06/10 00:30:59;;;;;;;3.93;2.80;;;15.80;97.30;;;;;;5055162;28;20421;-81
2022/06/10 00:33:24;;;;;;;3.00;2.80;;;15.80;97.30;;;;;;5058608;28;20205;-81
2022/06/10 00:35:51;;;;;;;8.30;3.20;;;15.80;97.30;;;;;;5076940;28;20175;-81
2022/06/10 00:38:17;;;;;;;2.90;2.67;;;15.70;97.30;;;;;;5058778;28;20171;-81
2022/06/10 00:40:48;;;;;;;6.20;3.20;;;15.70;97.30;;;;;;5058365;28;20765;-81
2022/06/10 00:43:16;;;;;;;5.63;3.20;;;15.70;97.30;;;;;;5058312;28;20413;-82
2022/06/10 00:46:11;;;;;;;5.40;3.27;;;15.70;97.30;;;;;;5058445;28;20423;-81
2022/06/10 00:48:47;;;;;;;5.47;3.10;;;15.70;97.30;;;;;;5058389;28;20425;-81
2022/06/10 00:51:31;;;;;;;4.40;3.40;;;15.70;97.30;;;;;;5058164;28;20460;-80
2022/06/10 00:54:14;;;;;;;6.10;3.03;;;15.60;97.30;;;;;;5058050;28;20952;-81
2022/06/10 00:56:46;;;;;;;5.03;3.50;;;15.60;97.30;;;;;;5058139;28;20835;-81
2022/06/10 00:59:24;;;;;;;5.00;3.10;;;15.60;97.30;;;;;;5058487;28;20465;-81
2022/06/10 01:01:54;;;;;;;5.00;3.20;;;15.60;97.30;;;;;;5058310;28;20518;-81
2022/06/10 01:04:20;;;;;;;7.77;3.50;;;15.60;97.30;;;;;;5058148;28;20425;-81
2022/06/10 01:06:46;;;;;;;5.70;2.80;;;15.50;97.30;;;;;;5058094;28;20541;-81
2022/06/10 01:09:12;;;;;;;4.17;2.83;;;15.50;97.30;;;;;;5057896;28;20788;-82
2022/06/10 01:12:23;;;;;;;4.53;2.70;;;15.50;97.30;;;;;;5057972;28;20214;-82
2022/06/10 01:15:14;;;;;;;7.23;3.30;;;15.50;97.30;;;;;;5057872;28;20417;-81
2022/06/10 01:18:13;;;;;;;4.30;2.83;;;15.40;97.30;;;;;;5058316;28;20484;-82
2022/06/10 01:20:51;;;;;;;3.90;2.83;;;15.40;97.30;;;;;;5058055;28;20448;-82
2022/06/10 01:23:35;;;;;;;5.43;3.47;;;15.30;97.30;;;;;;5058261;28;20954;-83
2022/06/10 01:26:03;;;;;;;5.83;2.80;;;15.30;97.30;;;;;;5058234;28;20425;-82
2022/06/10 01:29:06;;;;;;;8.13;3.80;;;15.30;97.30;;;;;;5076733;28;20406;-82
2022/06/10 01:31:39;;;;;;;5.67;3.33;;;15.20;97.30;;;;;;5058043;28;20423;-81
2022/06/10 01:34:28;;;;;;;10.00;3.50;;;15.20;97.30;;;;;;5057843;28;20493;-81
2022/06/10 01:37:12;;;;;;;4.70;3.17;;;15.20;97.30;;;;;;5057940;28;20502;-82
2022/06/10 01:40:02;;;;;;;3.20;3.03;;;15.20;97.30;;;;;;5057707;28;20436;-81
2022/06/10 01:42:53;;;;;;;7.27;3.20;;;15.10;97.30;;;;;;5055400;28;20421;-81
2022/06/10 01:46:00;;;;;;;8.13;3.57;;;15.10;97.30;;;;;;5054737;28;20425;-81
2022/06/10 01:48:33;;;;;;;4.83;3.27;;;15.10;97.30;;;;;;5000031;28;20524;-81
2022/06/10 01:51:25;;;;;;;6.60;3.50;;;15.00;97.30;;;;;;5054647;28;20417;-81
2022/06/10 01:53:58;;;;;;;4.40;3.57;;;15.00;97.30;;;;;;5041211;28;20471;-81
2022/06/10 01:56:35;;;;;;;5.30;3.80;;;15.00;97.30;;;;;;5055066;28;20516;-81
2022/06/10 01:59:23;;;;;;;5.23;3.47;;;14.90;97.30;;;;;;5054734;28;20843;-81
2022/06/10 02:02:30;;;;;;;6.00;4.20;;;14.90;97.30;;;;;;5054800;28;20784;-81
2022/06/10 02:05:00;;;;;;;10.23;4.27;;;14.80;97.30;;;;;;4955006;28;20418;-81
2022/06/10 02:07:33;;;;;;;5.37;4.03;;;14.80;97.30;;;;;;5041340;28;20465;-81
2022/06/10 02:10:13;;;;;;;5.57;3.50;;;14.80;97.30;;;;;;5055279;28;20786;-81
2022/06/10 02:12:47;;;;;;;3.50;3.30;;;14.70;97.30;;;;;;5054478;28;20492;-81
2022/06/10 02:15:24;;;;;;;6.63;3.40;;;14.70;97.30;;;;;;5055154;28;20421;-81
2022/06/10 02:17:57;;;;;;;4.70;3.57;;;14.70;97.30;;;;;;5055854;28;20469;-81
2022/06/10 02:20:27;;;;;;;5.10;3.47;;;14.60;97.30;;;;;;5055710;28;20424;-81
2022/06/10 02:22:56;;;;;;;6.73;3.60;;;14.60;97.30;;;;;;5055342;28;20425;-81
2022/06/10 02:25:27;;;;;;;6.30;3.70;;;14.60;97.30;;;;;;5055148;28;20513;-81
2022/06/10 02:27:57;;;;;;;5.73;4.07;;;14.60;97.30;;;;;;5054644;28;20893;-81
2022/06/10 02:30:32;;;;;;;5.47;4.10;;;14.60;97.30;;;;;;5054830;28;20417;-81
2022/06/10 02:32:59;;;;;;;6.57;4.40;;;14.60;97.30;;;;;;5054864;28;20421;-81
2022/06/10 02:35:35;;;;;;;5.10;3.63;;;14.50;97.30;;;;;;5054922;28;21004;-81
2022/06/10 02:38:14;;;;;;;3.57;3.03;;;14.40;97.30;;;;;;5054481;28;20531;-81
2022/06/10 02:40:45;;;;;;;5.90;3.07;;;14.40;97.30;;;;;;5054569;28;20417;-82
2022/06/10 02:43:28;;;;;;;6.23;3.47;;;14.30;97.30;;;;;;5054884;28;20410;-81
2022/06/10 02:46:13;;;;;;;4.20;3.03;;;14.30;97.30;;;;;;5054248;28;20443;-81
2022/06/10 02:48:48;;;;;;;3.67;3.23;;;14.30;97.30;;;;;;5054639;28;21023;-81
2022/06/10 02:51:16;;;;;;;5.07;3.70;;;14.30;97.30;;;;;;5054050;28;20448;-81
2022/06/10 02:53:42;;;;;;;4.37;3.53;;;14.20;97.30;;;;;;5055189;28;20449;-80
2022/06/10 02:56:20;;;;;;;4.37;3.53;;;14.20;97.30;;;;;;5054906;28;20958;-81
2022/06/10 03:01:38;;;;;;;9.07;3.90;;;14.10;97.30;;;;;;5072995;28;20455;-81
2022/06/10 03:04:22;;;;;;;10.37;4.13;;;14.10;97.30;;;;;;5055352;28;20418;-81
2022/06/10 03:07:16;;;;;;;6.30;4.03;;;14.10;97.30;;;;;;5055266;28;20986;-81
2022/06/10 03:09:56;;;;;;;5.97;4.70;;;14.00;97.30;;;;;;5055363;28;20410;-81
2022/06/10 03:12:36;;;;;;;5.00;4.17;;;14.00;97.30;;;;;;5054800;28;20461;-81
2022/06/10 03:15:32;;;;;;;7.13;4.80;;;14.00;97.30;;;;;;5054682;28;20790;-81
2022/06/10 03:18:04;;;;;;;7.40;4.37;;;14.00;97.30;;;;;;5054702;28;20452;-81
2022/06/10 03:20:36;;;;;;;7.40;5.37;;;14.00;97.30;;;;;;5054455;28;20410;-81
2022/06/10 03:23:34;;;;;;;5.57;4.53;;;14.00;97.30;;;;;;5054193;28;20429;-81
2022/06/10 03:26:13;;;;;;;7.23;5.10;;;14.00;97.30;;;;;;5054212;28;20445;-81
2022/06/10 03:29:03;;;;;;;10.17;5.13;;;14.00;97.30;;;;;;5053935;28;20829;-81
2022/06/10 03:31:39;;;;;;;7.83;5.23;;;13.90;97.30;;;;;;5054288;28;20612;-81
2022/06/10 03:34:18;;;;;;;11.93;5.30;;;13.90;97.30;;;;;;5072893;28;20508;-81
2022/06/10 03:36:46;;;;;;;5.77;5.00;;;13.90;97.30;;;;;;5053894;28;20433;-81
2022/06/10 03:39:12;;;;;;;9.60;5.30;;;13.90;97.30;;;;;;5054787;28;20429;-81
2022/06/10 03:41:54;;;;;;;9.20;5.30;;;13.90;97.30;;;;;;5054425;28;20422;-81
2022/06/10 03:44:21;;;;;;;9.47;6.00;;;13.90;97.30;;;;;;5054459;28;20425;-80
2022/06/10 03:46:48;;;;;;;9.23;4.63;;;13.90;97.30;;;;;;5054044;28;20513;-81
2022/06/10 03:49:17;;;;;;;6.50;5.30;;;13.90;97.30;;;;;;5054481;28;20444;-81
2022/06/10 03:51:44;;;;;;;9.13;5.20;;;13.80;97.30;;;;;;5071791;28;20405;-81
2022/06/10 03:54:15;;;;;;;9.93;5.40;;;13.80;97.30;;;;;;5054166;28;20414;-81
2022/06/10 03:56:41;;;;;;;10.50;5.37;;;13.80;97.30;;;;;;5053959;28;20433;-81
2022/06/10 03:59:07;;;;;;;11.10;5.37;;;13.80;97.30;;;;;;5054395;28;20433;-81
2022/06/10 04:01:32;;;;;;;7.17;5.27;;;13.80;97.30;;;;;;5054816;28;20547;-81
2022/06/10 04:03:59;;;;;;;6.77;4.97;;;13.80;97.30;;;;;;5054179;28;20364;-81
2022/06/10 04:06:25;;;;;;;11.63;5.10;;;13.80;97.30;;;;;;5053972;28;20215;-81
2022/06/10 04:08:51;;;;;;;8.30;4.90;;;13.80;97.30;;;;;;5054424;28;20431;-81
2022/06/10 04:11:16;;;;;;;7.00;4.60;;;13.80;97.30;;;;;;5054047;28;20175;-81
2022/06/10 04:13:44;;;;;;;6.83;5.20;;;13.80;97.30;;;;;;5054572;28;20181;-80
2022/06/10 04:16:11;;;;;;;7.53;5.30;;;13.80;97.30;;;;;;5054222;28;20221;-80
2022/06/10 04:18:46;;;;;;;8.40;5.53;;;13.80;97.30;;;;;;5071539;28;20433;-80
2022/06/10 04:21:11;;;;;;;9.70;5.10;;;13.80;97.30;;;;;;5054051;28;20520;-81
2022/06/10 04:23:41;;;;;;;11.13;5.27;;;13.90;97.30;;;;;;5054331;28;20949;-81
2022/06/10 04:26:11;;;;;;;7.97;5.43;;;13.90;97.30;;;;;;5053896;28;20230;-80
2022/06/10 04:28:41;;;;;;;6.40;5.13;;;14.00;97.30;;;;;;5054161;28;20414;-81
2022/06/10 04:31:09;;;;;;;8.57;5.27;;;14.00;97.30;;;;;;5053943;28;20428;-80
2022/06/10 04:33:35;;;;;;;10.07;5.53;;;14.00;97.30;;;;;;5053832;28;20507;-81
2022/06/10 04:36:01;;;;;;;8.87;4.60;;;14.00;97.30;;;;;;5071396;28;20405;-81
2022/06/10 04:38:28;;;;;;;7.90;6.00;;;14.00;97.30;;;;;;5053210;28;21036;-81
2022/06/10 04:40:54;;;;;;;9.00;5.20;;;14.10;97.30;;;;;;5052930;28;20252;-80
2022/06/10 04:43:20;;;;;;;8.63;5.63;;;14.10;97.30;;;;;;5053539;28;20899;-81
2022/06/10 04:45:49;;;;;;;8.77;5.30;;;14.10;97.30;;;;;;5053062;28;20179;-81
2022/06/10 04:48:16;;;;;;;9.40;5.30;;;14.10;97.30;;;;;;5053774;28;20175;-81
2022/06/10 04:50:43;;;;;;;6.33;4.83;;;14.10;97.30;;;;;;5054101;28;20719;-81
2022/06/10 04:53:09;;;;;;;7.83;5.10;;;14.20;97.30;;;;;;5054162;28;20492;-81
2022/06/10 04:55:35;;;;;;;7.27;5.33;;;14.20;97.30;;;;;;5053772;28;20409;-81
2022/06/10 04:58:02;;;;;;;8.50;5.27;;;14.20;97.30;;;;;;5053770;28;20941;-81
2022/06/10 05:00:32;;;;;;;13.43;7.10;;;14.30;97.30;;;;;;5053285;28;20424;-81
2022/06/10 05:02:59;;;;;;;8.17;5.63;;;14.30;97.30;;;;;;5053921;28;20425;-81
2022/06/10 05:05:25;;;;;;;10.70;6.60;;;14.40;97.30;;;;;;5054547;28;20513;-81
2022/06/10 05:07:51;;;;;;;8.37;5.70;;;14.40;97.30;;;;;;5054521;28;20527;-81
2022/06/10 05:10:18;;;;;;;8.13;5.30;;;14.50;97.30;;;;;;5054678;28;20418;-81
2022/06/10 05:12:45;;;;;;;9.17;5.60;;;14.50;97.30;;;;;;5054234;28;20485;-80
2022/06/10 05:15:15;;;;;;;8.07;5.90;;;14.50;97.30;;;;;;5055571;28;20418;-80
2022/06/10 05:17:41;;;;;;;10.10;6.00;;;14.60;97.30;;;;;;5055408;28;20510;-81
2022/06/10 05:20:10;;;;;;;12.80;5.90;;;14.70;97.30;;;;;;5058489;28;20449;-81
2022/06/10 05:22:35;;;;;;;9.87;5.70;;;14.70;97.30;;;;;;5057720;28;20176;-81
2022/06/10 05:25:01;;;;;;;9.63;5.30;;;14.80;97.30;;;;;;5057614;28;20993;-81
2022/06/10 05:27:30;;;;;;;8.87;5.13;;;14.80;97.30;;;;;;5057032;28;20207;-81
2022/06/10 05:29:56;;;;;;;16.03;5.60;;;14.90;97.30;;;;;;5057057;28;20179;-81
2022/06/10 05:32:22;;;;;;;9.37;6.47;;;14.90;97.30;;;;;;5055812;28;20771;-82
2022/06/10 05:34:49;;;;;;;11.10;7.23;;;15.00;97.30;;;;;;5056299;28;20183;-81
2022/06/10 05:37:18;;;;;;;8.57;5.37;;;15.00;97.30;;;;;;5055391;28;20195;-82
2022/06/10 05:39:44;;;;;;;12.23;6.00;;;15.10;97.30;;;;;;5057231;28;20493;-81
2022/06/10 05:42:10;;;;;;;8.40;5.63;;;15.10;97.30;;;;;;5056466;28;20468;-82
2022/06/10 05:44:42;;;;;;;14.50;5.87;;;15.20;97.30;;;;;;5057441;28;20998;-81
2022/06/10 05:47:12;;;;;;;12.23;6.60;;;15.20;97.30;;;;;;5058290;28;20527;-81
2022/06/10 05:49:41;;;;;;;7.30;5.37;;;15.30;97.30;;;;;;5058385;28;20519;-82
2022/06/10 05:52:12;;;;;;;11.33;6.30;;;15.40;97.30;;;;;;5058172;28;20512;-81
2022/06/10 05:54:42;;;;;;;11.50;6.13;;;15.40;97.30;;;;;;5057848;28;20413;-81
2022/06/10 05:57:11;;;;;;;5.70;5.10;;;15.50;97.30;;;;;;5057261;28;20445;-81
2022/06/10 05:59:38;;;;;;;11.90;5.30;;;15.60;97.30;;;;;;5057463;28;20429;-82
2022/06/10 06:02:09;;;;;;;6.50;5.30;;;15.60;97.30;;;;;;5056553;28;20490;-81
2022/06/10 06:04:35;;;;;;;10.10;5.67;;;15.70;97.30;;;;;;5057000;28;20452;-81
2022/06/10 06:07:01;;;;;;;9.30;5.53;;;15.80;97.30;;;;;;5056549;28;20501;-81
2022/06/10 06:09:26;;;;;;;8.90;5.60;;;15.80;97.30;;;;;;5059174;28;20183;-82
2022/06/10 06:11:57;;;;;;;8.60;4.67;;;15.90;97.30;;;;;;5060186;28;20235;-82
2022/06/10 06:14:25;;;;;;;8.17;5.73;;;16.00;97.30;;;;;;5060205;28;20209;-81
2022/06/10 06:17:00;;;;;;;8.80;5.27;;;16.00;97.30;;;;;;5059206;28;20445;-81
2022/06/10 06:19:28;;;;;;;7.93;5.07;;;16.10;97.30;;;;;;5073921;28;20482;-81
2022/06/10 06:21:54;;;;;;;8.10;4.97;;;16.20;97.30;;;;;;5072248;28;20428;-81
2022/06/10 06:24:20;;;;;;;7.03;4.93;;;16.20;97.30;;;;;;5054379;28;20418;-82
2022/06/10 06:26:45;;;;;;;11.10;4.50;;;16.30;97.30;;;;;;5072246;28;20203;-81
2022/06/10 06:29:11;;;;;;;5.67;4.00;;;16.30;97.30;;;;;;5053449;28;20174;-82
2022/06/10 06:31:37;;;;;;;7.43;4.50;;;16.40;97.30;;;;;;5054330;28;20179;-80
2022/06/10 06:34:03;;;;;;;8.33;4.63;;;16.40;97.30;;;;;;5053879;28;20461;-81
2022/06/10 06:36:38;;;;;;;7.17;4.23;;;16.50;97.30;;;;;;5054439;28;20205;-81
2022/06/10 06:39:05;;;;;;;9.00;4.40;;;16.50;97.30;;;;;;5054623;28;20421;-81
2022/06/10 06:41:30;;;;;;;6.27;4.60;;;16.60;97.30;;;;;;5054476;28;20436;-82
2022/06/10 06:43:56;;;;;;;6.60;4.57;;;16.60;97.30;;;;;;5054553;28;21012;-81
2022/06/10 06:46:21;;;;;;;7.47;3.97;;;16.70;97.30;;;;;;5053550;28;20211;-80
2022/06/10 06:48:47;;;;;;;9.00;4.57;;;16.80;97.30;;;;;;5054046;28;20417;-81
2022/06/10 06:51:13;;;;;;;6.97;4.10;;;16.90;97.30;;;;;;5053902;28;20171;-82
2022/06/10 06:53:39;;;;;;;8.90;4.30;;;16.90;97.30;;;;;;5053687;28;20265;-82
2022/06/10 06:56:06;;;;;;;7.00;4.20;;;17.00;97.30;;;;;;5054300;28;20461;-82
2022/06/10 06:58:32;;;;;;;11.57;4.30;;;17.00;97.30;;;;;;5072721;28;20286;-81
2022/06/10 07:00:58;;;;;;;4.77;3.50;;;17.10;97.30;;;;;;5053478;28;20413;-83
2022/06/10 07:03:25;;;;;;;10.00;3.70;;;17.10;97.30;;;;;;5069959;28;20413;-82
2022/06/10 07:05:52;;;;;;;8.53;3.93;;;17.20;97.30;;;;;;5054461;28;20470;-81
2022/06/10 07:08:18;;;;;;;5.63;3.33;;;17.20;97.30;;;;;;5057729;28;20489;-80
2022/06/10 07:10:44;;;;;;;3.93;3.80;;;17.30;97.30;;;;;;5076057;28;20433;-81
2022/06/10 07:13:11;;;;;;;8.33;4.67;;;17.30;97.30;;;;;;5051056;28;20740;-82
2022/06/10 07:15:43;;;;;;;9.63;4.30;;;17.40;97.30;;;;;;5049404;28;20501;-83
2022/06/10 07:18:09;;;;;;;6.63;4.07;;;17.40;97.30;;;;;;5049504;28;20465;-82
2022/06/10 07:20:37;;;;;;;9.60;3.60;;;17.50;97.30;;;;;;5050430;28;20936;-83
2022/06/10 07:23:03;;;;;;;10.47;4.07;;;17.60;97.30;;;;;;5049521;28;20422;-82
2022/06/10 07:25:30;;;;;;;7.47;4.20;;;17.60;97.30;;;;;;5050373;28;20468;-83
2022/06/10 07:27:56;;;;;;;5.40;3.20;;;17.70;97.30;;;;;;5050015;28;20822;-83
2022/06/10 07:30:25;;;;;;;9.93;3.93;;;17.80;97.30;;;;;;5043057;28;20415;-82
2022/06/10 07:32:51;;;;;;;7.33;4.57;;;17.80;97.30;;;;;;5032818;28;20404;-80
2022/06/10 07:35:18;;;;;;;13.60;4.30;;;17.90;97.30;;;;;;5034285;28;20416;-80
2022/06/10 07:37:45;;;;;;;6.03;3.90;;;17.90;97.30;;;;;;5044319;28;20430;-82
2022/06/10 07:43:08;;;;;;;7.20;4.43;;;18.10;97.30;;;;;;5056574;28;20422;-80
2022/06/10 07:45:34;;;;;;;11.73;4.00;;;18.20;97.30;;;;;;5051742;28;20423;-81
2022/06/10 07:48:01;;;;;;;13.27;4.73;;;18.30;97.30;;;;;;5053973;28;20212;-82
2022/06/10 07:50:30;;;;;;;9.00;4.60;;;18.40;97.30;;;;;;5053550;28;20446;-82
2022/06/10 07:52:56;;;;;;;8.43;3.67;;;18.40;97.30;;;;;;5054360;28;20437;-83
2022/06/10 07:55:22;;;;;;;9.37;3.73;;;18.50;97.30;;;;;;5056501;28;20892;-81
2022/06/10 07:57:48;;;;;;;6.63;3.60;;;18.60;97.30;;;;;;5050859;28;20496;-81
2022/06/10 08:00:15;;;;;;;6.60;3.63;;;18.80;97.30;;;;;;5048978;28;20426;-80
2022/06/10 08:02:41;;;;;;;6.50;3.17;;;18.80;97.30;;;;;;5049576;28;20203;-80
2022/06/10 08:05:10;;;;;;;7.20;3.83;;;18.90;97.30;;;;;;5048974;28;20802;-80
2022/06/10 08:07:39;;;;;;;5.87;4.00;;;19.00;97.30;;;;;;5048755;28;20979;-80
2022/06/10 08:10:25;;;;;;;6.60;4.13;;;19.10;97.30;;;;;;5049004;28;20418;-80
2022/06/10 08:12:51;;;;;;;6.83;3.20;;;19.20;97.30;;;;;;5049633;28;20477;-81
2022/06/10 08:15:19;;;;;;;8.80;3.67;;;19.30;96.80;;;;;;5050658;28;20493;-80
2022/06/10 08:17:46;;;;;;;9.67;3.93;;;19.40;96.70;;;;;;5050666;28;20282;-79
2022/06/10 08:20:20;;;;;;;13.60;4.47;;;19.50;96.30;;;;;;5049911;28;20410;-81
2022/06/10 08:22:45;;;;;;;5.67;3.97;;;19.60;96.10;;;;;;5051066;28;20414;-80
2022/06/10 08:25:12;;;;;;;6.47;2.87;;;19.60;94.90;;;;;;5051740;28;20422;-80
2022/06/10 08:27:38;;;;;;;5.67;3.27;;;19.50;94.40;;;;;;5050467;28;20211;-80
2022/06/10 08:30:07;;;;;;;8.20;3.10;;;19.50;95.00;;;;;;5050524;28;20425;-80
2022/06/10 08:32:32;;;;;;;7.13;3.40;;;19.60;95.10;;;;;;5050334;28;20444;-81
2022/06/10 08:34:58;;;;;;;4.70;3.73;;;19.60;94.60;;;;;;5050267;28;20699;-82
2022/06/10 08:37:24;;;;;;;8.97;2.80;;;19.60;93.70;;;;;;5050994;28;20203;-80
2022/06/10 08:39:49;;;;;;;6.63;2.90;;;19.60;93.20;;;;;;5051072;28;20183;-81
2022/06/10 08:42:35;;;;;;;17.50;4.63;;;19.70;93.80;;;;;;5050380;28;20274;-81
2022/06/10 08:45:23;;;;;;;4.37;2.93;;;19.70;94.10;;;;;;5050389;28;20168;-82
2022/06/10 08:48:12;;;;;;;10.30;2.67;;;19.80;94.10;;;;;;5051643;28;20474;-79
2022/06/10 08:51:03;;;;;;;3.50;2.60;;;19.90;93.00;;;;;;5051006;28;20946;-80
2022/06/10 08:54:08;;;;;;;7.20;2.43;;;20.00;92.00;;;;;;5054431;28;20506;-80
2022/06/10 08:56:43;;;;;;;6.50;2.77;;;20.00;92.30;;;;;;5040940;28;20454;-80
2022/06/10 08:59:20;;;;;;;4.23;2.33;;;20.10;92.90;;;;;;5056169;28;20471;-80
2022/06/10 09:02:03;;;;;;;5.47;2.77;;;20.30;92.10;;;;;;5055585;28;20456;-79
2022/06/10 09:04:53;;;;;;;6.80;3.00;;;20.50;90.90;;;;;;5055440;28;20420;-82
2022/06/10 09:07:40;;;;;;;5.27;3.03;;;20.70;92.00;;;;;;5055105;28;20492;-80
2022/06/10 09:10:23;;;;;;;5.33;2.57;;;20.90;91.50;;;;;;5055369;28;20494;-80
2022/06/10 09:13:28;;;;;;;4.20;2.50;;;21.10;90.40;;;;;;5056167;28;20465;-80
2022/06/10 09:16:12;;;;;;;6.67;2.60;;;21.20;89.70;;;;;;5055607;28;20425;-82
2022/06/10 09:18:52;;;;;;;3.97;2.47;;;21.40;90.00;;;;;;5054921;28;20426;-83
2022/06/10 09:21:53;;;;;;;4.50;3.17;;;21.40;88.30;;;;;;5055387;28;20428;-80
2022/06/10 09:24:35;;;;;;;7.10;2.80;;;21.40;87.50;;;;;;5037698;28;20415;-80
2022/06/10 09:27:24;;;;;;;7.90;2.37;;;21.30;86.10;;;;;;5054528;28;20890;-80
2022/06/10 09:29:51;;;;;;;5.93;2.40;;;21.30;87.50;;;;;;5044906;28;20502;-81
2022/06/10 09:32:49;;;;;;;3.00;2.17;;;21.30;86.50;;;;;;5056681;28;20468;-82
2022/06/10 09:35:31;;;;;;;6.47;2.50;;;21.50;84.90;;;;;;5054212;28;20506;-80
2022/06/10 09:38:05;;;;;;;3.73;1.93;;;21.60;84.90;;;;;;5053869;28;20507;-80
2022/06/10 09:40:38;;;;;;;7.70;2.40;;;21.70;84.40;;;;;;5053894;28;20517;-81
2022/06/10 09:43:11;;;;;;;3.50;2.27;;;21.80;84.20;;;;;;5054344;28;20450;-81
2022/06/10 09:46:03;;;;;;;6.40;2.20;;;21.90;85.20;;;;;;5054395;28;20421;-81
2022/06/10 09:48:46;;;;;;;4.67;2.70;;;22.10;84.70;;;;;;5054276;28;20434;-80
2022/06/10 09:51:45;;;;;;;2.50;2.37;;;22.20;84.60;;;;;;5054807;28;20538;-82
2022/06/10 09:54:25;;;;;;;6.43;2.50;;;22.30;84.50;;;;;;5053714;28;20415;-84
2022/06/10 09:57:05;;;;;;;4.80;2.23;;;22.40;82.80;;;;;;5053696;28;20704;-80
2022/06/10 09:59:57;;;;;;;17.43;3.47;;;22.50;82.90;;;;;;5053359;28;20438;-80
2022/06/10 10:02:57;;;;;;;4.97;2.80;;;22.50;83.20;;;;;;5052964;28;20807;-81
2022/06/10 10:05:52;;;;;;;3.93;2.20;;;22.50;83.20;;;;;;5054650;28;20406;-83
2022/06/10 10:08:43;;;;;;;7.47;2.00;;;22.60;82.40;;;;;;4985535;28;20472;-80
2022/06/10 10:11:27;;;;;;;5.37;2.23;;;22.80;81.90;;;;;;5054469;28;20429;-84
2022/06/10 10:14:10;;;;;;;3.73;2.40;;;22.90;81.10;;;;;;5074619;28;20429;-81
2022/06/10 10:17:01;;;;;;;2.60;2.00;;;23.00;81.30;;;;;;5056778;28;21024;-80
2022/06/10 10:19:50;;;;;;;7.23;2.40;;;23.20;81.60;;;;;;5057212;28;20406;-80
2022/06/10 10:22:46;;;;;;;5.50;1.90;;;23.20;78.70;;;;;;5058106;28;20420;-81
2022/06/10 10:25:16;;;;;;;4.70;2.30;;;23.30;78.30;;;;;;5057256;28;20489;-81
2022/06/10 10:27:44;;;;;;;4.77;2.30;;;23.40;79.70;;;;;;5057164;28;20997;-82
2022/06/10 10:30:20;;;;;;;5.27;2.57;;;23.40;79.70;;;;;;5057386;28;20410;-81
2022/06/10 10:32:54;;;;;;;5.50;2.23;;;23.50;79.40;;;;;;5074616;28;20773;-80
2022/06/10 10:35:22;;;;;;;5.90;2.40;;;23.50;79.90;;;;;;5056158;28;20425;-81
2022/06/10 10:38:14;;;;;;;4.43;2.43;;;23.40;81.10;;;;;;5055810;28;20457;-80
2022/06/10 10:40:42;;;;;;;6.10;2.40;;;23.40;81.40;;;;;;5055643;28;20442;-81
2022/06/10 10:43:27;;;;;;;4.43;2.10;;;23.30;81.70;;;;;;5055443;28;20516;-80
2022/06/10 10:45:58;;;;;;;4.27;2.30;;;23.30;81.80;;;;;;5055538;28;20520;-80
2022/06/10 10:48:31;;;;;;;4.50;2.50;;;23.30;81.40;;;;;;5056207;28;20500;-80
2022/06/10 10:50:59;;;;;;;3.83;2.20;;;23.50;80.60;;;;;;5055565;28;20504;-81
2022/06/10 10:53:50;;;;;;;4.03;2.10;;;23.60;80.70;;;;;;5074157;28;20443;-80
2022/06/10 10:56:16;;;;;;;2.30;2.00;;;23.70;81.50;;;;;;5055591;28;20429;-80
2022/06/10 10:58:55;;;;;;;4.27;2.30;;;23.90;80.70;;;;;;5055677;28;20421;-81
2022/06/10 11:01:51;;;;;;;4.20;2.00;;;23.90;79.30;;;;;;5055368;28;20922;-80
2022/06/10 11:04:24;;;;;;;4.00;2.33;;;23.80;80.50;;;;;;5055437;28;20406;-80
2022/06/10 11:07:22;;;;;;;3.93;2.13;;;23.60;79.50;;;;;;5055371;28;20457;-81
2022/06/10 11:10:04;;;;;;;6.43;2.60;;;23.30;79.30;;;;;;5011989;28;20513;-80
2022/06/10 11:12:29;;;;;;;5.20;2.50;;;23.10;79.70;;;;;;5054979;28;20461;-81
2022/06/10 11:15:12;;;;;;;4.40;2.70;;;22.90;80.70;;;;;;5072827;28;20769;-79
2022/06/10 11:17:42;;;;;;;9.70;2.83;;;22.80;81.40;;;;;;5053702;28;20694;-79
2022/06/10 11:20:27;;;;;;;4.07;2.80;;;22.70;81.70;;;;;;5054605;28;20477;-81
2022/06/10 11:23:11;;;;;;;13.50;3.80;;;22.60;81.40;;;;;;5054442;28;20424;-80
2022/06/10 11:25:37;;;;;;;13.00;3.30;;;22.60;81.50;;;;;;5053711;28;20425;-81
2022/06/10 11:28:21;;;;;;;9.53;2.90;;;22.50;82.10;;;;;;5053697;28;20449;-81
2022/06/10 11:30:51;;;;;;;8.93;3.17;;;22.50;82.10;;;;;;5054425;28;20178;-80
2022/06/10 11:33:38;;;;;;;5.80;2.60;;;22.60;82.10;;;;;;5053936;28;20480;-80
2022/06/10 11:36:20;;;;;;;4.30;2.67;;;22.70;82.00;;;;;;5053838;28;20428;-80
2022/06/10 11:39:14;;;;;;;4.17;2.20;;;23.00;82.50;;;;;;5054521;28;20426;-80
2022/06/10 11:41:40;;;;;;;4.77;2.60;;;23.20;81.40;;;;;;5041303;28;20414;-80
2022/06/10 11:44:05;;;;;;;4.83;2.13;;;23.30;80.10;;;;;;5055068;28;20770;-80
2022/06/10 11:46:49;;;;;;;16.10;4.13;;;23.20;79.70;;;;;;5053966;28;20783;-82
2022/06/10 11:49:27;;;;;;;4.37;2.00;;;23.30;81.10;;;;;;5054100;28;20300;-80
2022/06/10 11:52:19;;;;;;;5.80;2.60;;;23.40;81.00;;;;;;5058018;28;20421;-81
2022/06/10 11:54:55;;;;;;;4.47;1.90;;;23.40;80.10;;;;;;5056322;28;20961;-80
2022/06/10 12:00:51;;;;;;;2.70;1.93;;;23.40;80.30;;;;;;5066798;28;20799;-81
2022/06/10 12:03:20;;;;;;;4.50;1.80;;;23.50;77.80;;;;;;5043757;28;20429;-80
2022/06/10 12:06:09;;;;;;;3.80;2.10;;;23.50;77.80;;;;;;5052207;28;20452;-81
2022/06/10 12:08:54;;;;;;;6.93;1.80;;;23.50;77.40;;;;;;5036489;28;20423;-82
2022/06/10 12:11:38;;;;;;;5.10;2.30;;;23.60;77.30;;;;;;5048231;28;20467;-81
2022/06/10 12:14:29;;;;;;;3.60;2.30;;;23.70;77.10;;;;;;5056884;28;20449;-81
2022/06/10 12:17:12;;;;;;;6.70;2.47;;;23.60;76.90;;;;;;5058370;28;20520;-82
2022/06/10 12:19:48;;;;;;;4.63;2.00;;;23.60;76.80;;;;;;5058424;28;20413;-83
2022/06/10 12:22:14;;;;;;;2.47;1.80;;;23.50;76.00;;;;;;5055832;28;20422;-83
2022/06/10 12:24:42;;;;;;;5.30;2.10;;;23.50;75.80;;;;;;5049334;28;20426;-81
2022/06/10 12:27:15;;;;;;;7.80;2.10;;;23.50;76.30;;;;;;5042734;28;20464;-81
2022/06/10 12:29:44;;;;;;;2.27;1.73;;;23.50;76.30;;;;;;5065215;28;20415;-81
2022/06/10 12:32:23;;;;;;;1.80;1.70;;;23.40;76.90;;;;;;5064046;28;20465;-82
2022/06/10 12:34:52;;;;;;;4.43;2.00;;;23.30;76.70;;;;;;5041160;28;20923;-83
2022/06/10 12:37:37;;;;;;;4.00;1.60;;;23.30;77.70;;;;;;5045964;28;20462;-81
2022/06/10 12:40:07;;;;;;;3.40;1.97;;;23.30;77.60;;;;;;5052415;28;20417;-81
2022/06/10 12:42:46;;;;;;;3.27;1.90;;;23.20;77.40;;;;;;5060483;28;20450;-85
2022/06/10 12:45:33;;;;;;;6.40;1.90;;;23.20;76.40;;;;;;5059962;28;20455;-82
2022/06/10 12:48:08;;;;;;;5.70;2.20;;;23.20;76.60;;;;;;5073419;28;20469;-81
2022/06/10 12:50:37;;;;;;;4.10;2.10;;;23.30;76.60;;;;;;5072630;28;21060;-81
2022/06/10 12:53:25;;;;;;;3.67;2.17;;;23.30;76.90;;;;;;5060643;28;20846;-81
2022/06/10 12:55:54;;;;;;;4.00;1.80;;;23.50;79.10;;;;;;5052968;28;20422;-81
2022/06/10 12:58:42;;;;;;;4.83;1.80;;;23.80;77.50;;;;;;5058173;28;21035;-81
2022/06/10 13:01:18;;;;;;;3.70;1.70;;;23.80;76.20;;;;;;5055051;28;20428;-82
2022/06/10 13:03:46;;;;;;;4.93;1.60;;;23.80;75.80;;;;;;5067553;28;20494;-81
2022/06/10 13:06:44;;;;;;;6.30;2.57;;;23.80;76.30;;;;;;5057032;28;20445;-81
2022/06/10 13:09:10;;;;;;;5.70;2.10;;;23.80;76.70;;;;;;5052599;28;20631;-81
2022/06/10 13:11:52;;;;;;;8.73;4.73;;;23.80;76.80;;;;;;5069879;28;20457;-81
2022/06/10 13:14:30;;;;;;;3.20;2.00;;;23.80;77.30;;;;;;5046393;28;20207;-81
2022/06/10 13:17:08;;;;;;;3.90;2.13;;;24.00;78.00;;;;;;5071322;28;20575;-81
2022/06/10 13:20:01;;;;;;;3.30;2.00;;;24.20;77.90;;;;;;5053101;28;20452;-80
2022/06/10 13:22:40;;;;;;;8.00;2.67;;;24.50;78.60;;;;;;5038914;28;20422;-80
2022/06/10 13:25:05;;;;;;;3.40;2.03;;;24.90;77.80;;;;;;5040415;28;20888;-81
2022/06/10 13:27:39;;;;;;;9.70;2.00;;;25.10;76.80;;;;;;5039400;28;20462;-80
2022/06/10 13:30:16;;;;;;;2.93;1.70;;;25.10;75.00;;;;;;5041026;28;20168;-81
2022/06/10 13:32:52;;;;;;;7.57;2.00;;;25.10;73.90;;;;;;5040080;28;20418;-81